createdAt,value
2022-11-28T00:01:39.307Z,9.07
2022-11-28T00:04:07.440Z,8.97
2022-11-28T00:06:37.337Z,9.47
2022-11-28T00:09:05.221Z,11.33
2022-11-28T00:11:32.688Z,7.77
2022-11-28T00:14:00.175Z,10.43
2022-11-28T00:16:27.807Z,9.23
2022-11-28T00:18:55.677Z,13.23
2022-11-28T00:21:23.505Z,7.57
2022-11-28T00:23:51.418Z,7.77
2022-11-28T00:26:18.860Z,11.30
2022-11-28T00:28:46.879Z,13.73
2022-11-28T00:31:15.635Z,9.10
2022-11-28T00:33:43.376Z,10.70
2022-11-28T00:36:11.528Z,13.57
2022-11-28T00:38:39.012Z,10.30
2022-11-28T00:41:07.738Z,10.10
2022-11-28T00:43:35.319Z,9.20
2022-11-28T00:46:03.190Z,8.37
2022-11-28T00:48:30.955Z,9.00
2022-11-28T00:51:05.784Z,9.37
2022-11-28T00:53:33.231Z,11.13
2022-11-28T00:56:00.714Z,15.70
2022-11-28T00:58:28.172Z,10.73
2022-11-28T01:00:55.623Z,8.53
2022-11-28T01:03:23.101Z,9.40
2022-11-28T01:05:50.503Z,9.87
2022-11-28T01:08:18.005Z,10.03
2022-11-28T01:10:46.060Z,7.93
2022-11-28T01:13:13.524Z,8.63
2022-11-28T01:15:41.904Z,7.83
2022-11-28T01:18:09.545Z,8.77
2022-11-28T01:20:37.297Z,8.80
2022-11-28T01:23:04.779Z,10.07
2022-11-28T01:25:32.346Z,9.10
2022-11-28T01:27:59.792Z,8.57
2022-11-28T01:30:27.372Z,8.90
2022-11-28T01:32:54.874Z,9.17
2022-11-28T01:35:22.382Z,9.37
2022-11-28T01:37:49.901Z,8.53
2022-11-28T01:40:17.506Z,11.60
2022-11-28T01:42:45.019Z,9.87
2022-11-28T01:45:15.437Z,8.57
2022-11-28T01:47:43.200Z,8.60
2022-11-28T01:50:11.210Z,10.50
2022-11-28T01:52:41.126Z,10.47
2022-11-28T01:55:09.260Z,10.00
2022-11-28T01:57:36.793Z,9.97
2022-11-28T02:00:06.888Z,8.87
2022-11-28T02:02:36.018Z,8.07
2022-11-28T02:05:03.741Z,10.50
2022-11-28T02:07:31.188Z,10.47
2022-11-28T02:09:58.695Z,8.87
2022-11-28T02:12:35.244Z,9.73
2022-11-28T02:15:05.737Z,12.03
2022-11-28T02:17:44.073Z,9.40
2022-11-28T02:20:11.436Z,9.70
2022-11-28T02:23:05.094Z,11.57
2022-11-28T02:25:42.934Z,8.37
2022-11-28T02:28:30.800Z,7.67
2022-11-28T02:31:16.640Z,8.70
2022-11-28T02:33:49.048Z,9.37
2022-11-28T02:36:24.194Z,12.63
2022-11-28T02:39:00.502Z,10.50
2022-11-28T02:41:33.824Z,8.67
2022-11-28T02:44:07.462Z,8.57
2022-11-28T02:46:41.560Z,11.73
2022-11-28T02:49:13.155Z,11.50
2022-11-28T02:51:46.859Z,11.17
2022-11-28T02:54:16.127Z,10.60
2022-11-28T02:56:50.243Z,11.93
2022-11-28T02:59:34.319Z,9.20
2022-11-28T03:02:02.205Z,9.50
2022-11-28T03:04:48.460Z,12.77
2022-11-28T03:07:34.603Z,10.67
2022-11-28T03:10:21.045Z,11.30
2022-11-28T03:12:56.642Z,10.00
2022-11-28T03:15:28.364Z,10.67
2022-11-28T03:17:58.832Z,11.33
2022-11-28T03:20:29.300Z,12.33
2022-11-28T03:22:56.771Z,12.53
2022-11-28T03:25:29.207Z,12.43
2022-11-28T03:28:04.740Z,10.07
2022-11-28T03:30:42.753Z,11.93
2022-11-28T03:33:10.351Z,11.33
2022-11-28T03:35:41.121Z,10.77
2022-11-28T03:38:12.229Z,11.80
2022-11-28T03:40:42.140Z,11.37
2022-11-28T03:43:11.856Z,13.80
2022-11-28T03:45:41.198Z,11.53
2022-11-28T03:48:17.128Z,16.17
2022-11-28T03:51:00.045Z,11.57
2022-11-28T03:53:30.855Z,10.90
2022-11-28T03:56:05.349Z,11.07
2022-11-28T03:58:36.217Z,10.53
2022-11-28T04:01:07.518Z,11.23
2022-11-28T04:03:53.581Z,12.27
2022-11-28T04:06:28.503Z,11.47
2022-11-28T04:09:03.138Z,10.73
2022-11-28T04:11:45.073Z,14.33
2022-11-28T04:14:18.764Z,10.77
2022-11-28T04:16:53.840Z,10.63
2022-11-28T04:19:44.814Z,12.07
2022-11-28T04:22:19.417Z,11.80
2022-11-28T04:24:49.319Z,10.07
2022-11-28T04:27:19.561Z,10.10
2022-11-28T04:29:48.557Z,12.20
2022-11-28T04:32:17.021Z,11.10
2022-11-28T04:34:46.144Z,12.30
2022-11-28T04:37:14.698Z,11.93
2022-11-28T04:39:43.602Z,10.03
2022-11-28T04:42:15.902Z,11.90
2022-11-28T04:45:01.933Z,11.53
2022-11-28T04:47:29.735Z,12.13
2022-11-28T04:49:57.350Z,13.63
2022-11-28T04:52:32.016Z,13.63
2022-11-28T04:54:59.411Z,14.87
2022-11-28T04:57:33.684Z,9.87
2022-11-28T05:00:02.196Z,12.60
2022-11-28T05:02:30.064Z,13.13
2022-11-28T05:04:57.720Z,12.37
2022-11-28T05:07:25.290Z,14.63
2022-11-28T05:09:52.817Z,12.33
2022-11-28T05:12:20.293Z,14.17
2022-11-28T05:14:47.734Z,13.27
2022-11-28T05:17:15.175Z,12.20
2022-11-28T05:19:42.578Z,16.67
2022-11-28T05:22:10.209Z,13.70
2022-11-28T05:24:37.653Z,10.73
2022-11-28T05:27:05.082Z,10.47
2022-11-28T05:29:32.600Z,10.30
2022-11-28T05:32:00.155Z,14.57
2022-11-28T05:34:27.687Z,13.67
2022-11-28T05:36:55.082Z,14.20
2022-11-28T05:39:22.562Z,11.73
2022-11-28T05:41:49.972Z,12.33
2022-11-28T05:44:17.380Z,11.03
2022-11-28T05:46:44.838Z,12.10
2022-11-28T05:49:12.286Z,14.53
2022-11-28T05:51:39.784Z,10.13
2022-11-28T05:54:07.362Z,11.27
2022-11-28T05:56:40.905Z,11.27
2022-11-28T05:59:13.068Z,15.73
2022-11-28T06:01:40.661Z,11.23
2022-11-28T06:04:08.230Z,11.73
2022-11-28T06:06:36.365Z,14.27
2022-11-28T06:09:04.787Z,11.43
2022-11-28T06:11:32.759Z,12.67
2022-11-28T06:14:00.235Z,10.90
2022-11-28T06:16:29.744Z,11.00
2022-11-28T06:18:58.522Z,12.97
2022-11-28T06:21:26.282Z,13.37
2022-11-28T06:23:53.880Z,9.80
2022-11-28T06:26:22.221Z,11.60
2022-11-28T06:28:49.808Z,16.30
2022-11-28T06:31:18.877Z,12.07
2022-11-28T06:33:46.752Z,10.63
2022-11-28T06:36:15.195Z,8.67
2022-11-28T06:38:43.056Z,12.23
2022-11-28T06:41:11.654Z,12.90
2022-11-28T06:43:39.083Z,15.03
2022-11-28T06:46:06.959Z,11.23
2022-11-28T06:48:34.456Z,11.27
2022-11-28T06:51:02.854Z,14.03
2022-11-28T06:53:31.677Z,11.87
2022-11-28T06:55:59.560Z,11.73
2022-11-28T06:58:26.988Z,12.33
2022-11-28T07:00:54.456Z,11.37
2022-11-28T07:03:21.946Z,11.70
2022-11-28T07:05:49.365Z,14.40
2022-11-28T07:08:16.903Z,13.53
2022-11-28T07:10:44.377Z,11.53
2022-11-28T07:13:12.204Z,14.43
2022-11-28T07:21:53.928Z,12.70
2022-11-28T07:24:21.341Z,13.70
2022-11-28T07:26:48.782Z,12.73
2022-11-28T07:29:17.604Z,14.23
2022-11-28T07:31:45.145Z,13.50
2022-11-28T07:34:12.702Z,13.10
2022-11-28T07:36:40.296Z,13.70
2022-11-28T07:39:08.532Z,15.17
2022-11-28T07:41:36.007Z,11.77
2022-11-28T07:44:04.808Z,11.57
2022-11-28T07:46:33.516Z,13.47
2022-11-28T07:49:01.455Z,12.33
2022-11-28T07:51:30.248Z,13.00
2022-11-28T07:53:57.699Z,11.77
2022-11-28T07:56:50.193Z,12.60
2022-11-28T07:59:17.542Z,14.23
2022-11-28T08:01:45.089Z,10.60
2022-11-28T08:04:12.684Z,12.43
2022-11-28T08:06:40.975Z,11.87
2022-11-28T08:09:08.766Z,14.30
2022-11-28T08:11:36.261Z,10.50
2022-11-28T08:14:04.141Z,11.90
2022-11-28T08:16:31.853Z,12.33
2022-11-28T08:19:01.182Z,13.17
2022-11-28T08:21:30.399Z,12.23
2022-11-28T08:23:59.730Z,12.43
2022-11-28T08:26:30.605Z,12.30
2022-11-28T08:28:58.863Z,13.00
2022-11-28T08:31:34.181Z,14.77
2022-11-28T08:34:04.162Z,12.67
2022-11-28T08:36:31.657Z,11.60
2022-11-28T08:39:22.943Z,11.93
2022-11-28T08:41:50.093Z,14.43
2022-11-28T08:44:17.534Z,10.57
2022-11-28T08:46:45.094Z,11.40
2022-11-28T08:49:12.566Z,13.00
2022-11-28T08:51:40.129Z,11.63
2022-11-28T08:54:07.613Z,12.77
2022-11-28T08:56:35.485Z,12.60
2022-11-28T08:59:03.479Z,11.77
2022-11-28T09:01:31.023Z,12.07
2022-11-28T09:03:58.543Z,15.87
2022-11-28T09:06:26.073Z,11.73
2022-11-28T09:08:53.788Z,9.63
2022-11-28T09:11:22.324Z,15.00
2022-11-28T09:13:50.019Z,11.07
2022-11-28T09:16:17.910Z,14.90
2022-11-28T09:18:45.429Z,14.03
2022-11-28T09:21:13.673Z,10.27
2022-11-28T09:23:42.319Z,15.50
2022-11-28T09:26:10.840Z,13.37
2022-11-28T09:28:38.515Z,15.53
2022-11-28T09:31:07.203Z,12.70
2022-11-28T09:33:35.210Z,12.80
2022-11-28T09:36:07.126Z,12.70
2022-11-28T09:38:34.566Z,15.53
2022-11-28T09:41:02.578Z,11.90
2022-11-28T09:43:30.022Z,12.90
2022-11-28T09:45:58.709Z,15.10
2022-11-28T09:48:29.851Z,11.70
2022-11-28T09:51:01.977Z,17.00
2022-11-28T09:53:34.642Z,12.60
2022-11-28T09:56:10.072Z,13.20
2022-11-28T09:58:50.963Z,13.63
2022-11-28T10:01:27.574Z,14.27
2022-11-28T10:04:11.422Z,15.87
2022-11-28T10:06:45.065Z,17.17
2022-11-28T10:09:21.757Z,16.30
2022-11-28T10:12:01.330Z,13.13
2022-11-28T10:14:47.036Z,16.13
2022-11-28T10:17:33.003Z,16.50
2022-11-28T10:20:03.650Z,15.57
2022-11-28T10:22:40.028Z,14.83
2022-11-28T10:25:14.853Z,13.87
2022-11-28T10:27:42.478Z,14.43
2022-11-28T10:30:16.417Z,12.43
2022-11-28T10:32:45.749Z,12.83
2022-11-28T10:35:31.691Z,14.83
2022-11-28T10:37:59.184Z,13.80
2022-11-28T10:40:31.444Z,15.30
2022-11-28T10:42:59.066Z,13.37
2022-11-28T10:45:49.186Z,15.80
2022-11-28T10:51:20.165Z,13.63
2022-11-28T10:54:01.981Z,13.53
2022-11-28T10:56:29.506Z,13.10
2022-11-28T10:59:07.873Z,15.77
2022-11-28T11:01:37.760Z,11.67
2022-11-28T11:04:06.287Z,15.07
2022-11-28T11:06:41.770Z,15.27
2022-11-28T11:09:15.335Z,15.77
2022-11-28T11:11:46.750Z,13.23
2022-11-28T11:14:14.205Z,12.90
2022-11-28T11:16:52.269Z,14.17
2022-11-28T11:19:33.246Z,14.47
2022-11-28T11:22:27.010Z,16.77
2022-11-28T11:25:13.695Z,17.63
2022-11-28T11:27:48.339Z,15.03
2022-11-28T11:30:25.276Z,16.23
2022-11-28T11:32:54.856Z,18.20
2022-11-28T11:35:27.317Z,14.63
2022-11-28T11:38:07.221Z,16.93
2022-11-28T11:40:34.703Z,17.27
2022-11-28T11:43:02.124Z,18.53
2022-11-28T11:45:33.841Z,19.40
2022-11-28T11:48:02.230Z,18.97
2022-11-28T11:50:30.911Z,20.23
2022-11-28T11:53:01.369Z,17.20
2022-11-28T11:55:29.636Z,18.50
2022-11-28T11:58:02.771Z,19.43
2022-11-28T12:00:38.279Z,16.23
2022-11-28T12:03:11.602Z,16.80
2022-11-28T12:06:12.105Z,16.43
2022-11-28T12:08:42.336Z,16.97
2022-11-28T12:11:30.053Z,18.40
2022-11-28T12:14:05.128Z,18.90
2022-11-28T12:16:41.685Z,18.57
2022-11-28T12:19:12.308Z,16.83
2022-11-28T12:21:42.751Z,17.40
2022-11-28T12:24:12.234Z,15.37
2022-11-28T12:26:45.811Z,14.13
2022-11-28T12:29:31.942Z,19.80
2022-11-28T12:32:02.226Z,16.07
2022-11-28T12:34:53.531Z,15.77
2022-11-28T12:37:29.498Z,18.27
2022-11-28T12:40:04.747Z,16.03
2022-11-28T12:42:32.160Z,17.57
2022-11-28T12:45:18.521Z,16.43
2022-11-28T12:48:04.845Z,16.80
2022-11-28T12:50:40.237Z,17.53
2022-11-28T12:53:21.170Z,19.23
2022-11-28T12:56:08.936Z,14.87
2022-11-28T12:58:36.404Z,19.27
2022-11-28T13:01:22.581Z,14.67
2022-11-28T13:04:08.515Z,14.60
2022-11-28T13:06:54.208Z,18.03
2022-11-28T13:09:24.497Z,16.57
2022-11-28T13:11:52.025Z,20.70
2022-11-28T13:14:31.582Z,18.07
2022-11-28T13:17:04.475Z,15.47
2022-11-28T13:19:31.942Z,16.67
2022-11-28T13:22:02.161Z,15.97
2022-11-28T13:24:36.420Z,15.77
2022-11-28T13:27:03.912Z,14.23
2022-11-28T13:29:31.318Z,12.33
2022-11-28T13:32:10.821Z,19.37
2022-11-28T13:34:38.547Z,15.17
2022-11-28T13:40:25.296Z,15.80
2022-11-28T13:43:06.566Z,14.53
2022-11-28T13:45:36.575Z,17.57
2022-11-28T13:48:42.907Z,15.43
2022-11-28T13:51:30.179Z,15.97
2022-11-28T13:54:17.551Z,15.07
2022-11-28T13:56:46.281Z,13.07
2022-11-28T13:59:21.745Z,15.03
2022-11-28T14:01:57.826Z,17.13
2022-11-28T14:04:25.737Z,20.43
2022-11-28T14:06:55.867Z,18.17
2022-11-28T14:09:23.482Z,17.13
2022-11-28T14:11:50.872Z,15.40
2022-11-28T14:14:30.682Z,16.63
2022-11-28T14:17:16.810Z,15.07
2022-11-28T14:19:44.317Z,15.60
2022-11-28T14:22:28.124Z,17.13
2022-11-28T14:25:00.122Z,16.63
2022-11-28T14:27:29.634Z,16.03
2022-11-28T14:29:57.955Z,16.00
2022-11-28T14:32:39.806Z,17.57
2022-11-28T14:35:13.051Z,17.67
2022-11-28T14:37:50.586Z,15.97
2022-11-28T14:40:37.119Z,15.97
2022-11-28T14:43:22.456Z,16.97
2022-11-28T14:45:50.909Z,19.37
2022-11-28T14:48:19.958Z,18.50
2022-11-28T14:50:56.193Z,17.10
2022-11-28T14:53:38.951Z,18.90
2022-11-28T14:56:15.684Z,18.23
2022-11-28T14:58:49.947Z,19.33
2022-11-28T15:01:25.220Z,15.63
2022-11-28T15:03:59.569Z,19.80
2022-11-28T15:06:45.092Z,20.23
2022-11-28T15:09:22.101Z,20.83
2022-11-28T15:12:08.458Z,21.63
2022-11-28T15:14:36.284Z,24.47
2022-11-28T15:17:05.733Z,18.40
2022-11-28T15:19:35.134Z,22.00
2022-11-28T15:22:02.579Z,22.60
2022-11-28T15:24:32.065Z,18.23
2022-11-28T15:27:08.745Z,19.80
2022-11-28T15:29:36.962Z,19.53
2022-11-28T15:32:05.272Z,21.23
2022-11-28T15:34:33.832Z,21.03
2022-11-28T15:37:21.551Z,25.27
2022-11-28T15:39:49.935Z,16.00
2022-11-28T15:42:20.770Z,19.87
2022-11-28T15:44:48.685Z,17.03
2022-11-28T15:47:18.821Z,21.00
2022-11-28T15:49:46.573Z,21.93
2022-11-28T15:52:16.894Z,23.23
2022-11-28T15:54:44.751Z,26.53
2022-11-28T15:57:22.570Z,19.47
2022-11-28T15:59:50.191Z,25.90
2022-11-28T16:02:22.620Z,23.73
2022-11-28T16:04:52.970Z,20.53
2022-11-28T16:07:20.524Z,25.83
2022-11-28T16:09:58.920Z,23.80
2022-11-28T16:12:27.242Z,24.60
2022-11-28T16:14:54.896Z,24.20
2022-11-28T16:17:28.225Z,22.10
2022-11-28T16:19:56.470Z,22.70
2022-11-28T16:22:27.909Z,26.33
2022-11-28T16:24:56.218Z,27.57
2022-11-28T16:27:37.358Z,21.33
2022-11-28T16:30:24.839Z,21.17
2022-11-28T16:32:53.398Z,26.90
2022-11-28T16:35:26.756Z,22.73
2022-11-28T16:37:54.232Z,24.00
2022-11-28T16:40:23.453Z,23.93
2022-11-28T16:42:54.722Z,24.60
2022-11-28T16:45:26.789Z,24.10
2022-11-28T16:47:56.346Z,27.87
2022-11-28T16:50:24.662Z,21.83
2022-11-28T16:52:52.243Z,25.40
2022-11-28T16:55:32.009Z,27.60
2022-11-28T16:58:02.530Z,26.77
2022-11-28T17:00:30.156Z,25.23
2022-11-28T17:02:57.576Z,23.73
2022-11-28T17:05:25.046Z,24.10
2022-11-28T17:07:53.514Z,27.80
2022-11-28T17:10:21.056Z,25.70
2022-11-28T17:12:48.565Z,28.63
2022-11-28T17:15:16.870Z,26.30
2022-11-28T17:17:44.339Z,20.90
2022-11-28T17:20:15.501Z,25.17
2022-11-28T17:22:44.446Z,20.93
2022-11-28T17:25:18.944Z,22.53
2022-11-28T17:27:46.661Z,23.23
2022-11-28T17:30:17.919Z,23.07
2022-11-28T17:32:45.564Z,24.50
2022-11-28T17:35:21.234Z,20.67
2022-11-28T17:37:48.713Z,23.83
2022-11-28T17:40:16.243Z,23.73
2022-11-28T17:42:43.742Z,19.03
2022-11-28T17:45:13.744Z,21.67
2022-11-28T17:47:41.270Z,24.63
2022-11-28T17:50:09.856Z,22.90
2022-11-28T17:52:37.449Z,18.93
2022-11-28T17:55:07.246Z,21.57
2022-11-28T17:57:34.986Z,20.43
2022-11-28T18:00:02.786Z,21.07
2022-11-28T18:02:30.402Z,21.17
2022-11-28T18:04:57.941Z,21.20
2022-11-28T18:07:25.547Z,21.67
2022-11-28T18:09:53.247Z,21.33
2022-11-28T18:12:21.706Z,24.03
2022-11-28T18:14:49.126Z,24.23
2022-11-28T18:17:16.656Z,23.20
2022-11-28T18:19:44.404Z,25.27
2022-11-28T18:22:12.211Z,21.10
2022-11-28T18:24:39.724Z,23.03
2022-11-28T18:27:07.222Z,22.17
2022-11-28T18:29:34.685Z,23.43
2022-11-28T18:32:02.166Z,28.37
2022-11-28T18:34:29.675Z,26.13
2022-11-28T18:36:57.231Z,26.30
2022-11-28T18:39:24.725Z,23.10
2022-11-28T18:41:52.220Z,22.47
2022-11-28T18:44:19.716Z,24.10
2022-11-28T18:46:47.143Z,23.67
2022-11-28T18:49:14.715Z,24.77
2022-11-28T18:51:42.167Z,25.90
2022-11-28T18:54:09.852Z,23.60
2022-11-28T18:56:37.295Z,27.43
2022-11-28T18:59:04.744Z,25.47
2022-11-28T19:01:33.392Z,25.30
2022-11-28T19:04:02.937Z,23.17
2022-11-28T19:06:30.495Z,23.67
2022-11-28T19:08:59.157Z,23.73
2022-11-28T19:11:27.170Z,23.10
2022-11-28T19:13:54.848Z,24.40
2022-11-28T19:16:24.185Z,24.53
2022-11-28T19:18:51.719Z,22.17
2022-11-28T19:21:21.053Z,21.93
2022-11-28T19:23:48.877Z,20.03
2022-11-28T19:26:20.353Z,21.40
2022-11-28T19:28:47.943Z,20.07
2022-11-28T19:31:22.311Z,24.27
2022-11-28T19:34:00.964Z,30.37
2022-11-28T19:36:30.157Z,24.87
2022-11-28T19:38:58.184Z,26.13
2022-11-28T19:41:25.636Z,20.73
2022-11-28T19:43:53.057Z,23.10
2022-11-28T19:46:20.819Z,31.47
2022-11-28T19:48:51.230Z,22.37
2022-11-28T19:51:18.862Z,27.07
2022-11-28T19:53:46.369Z,23.17
2022-11-28T19:56:13.880Z,24.80
2022-11-28T19:58:41.646Z,38.10
2022-11-28T20:01:16.499Z,35.30
2022-11-28T20:03:45.784Z,27.80
2022-11-28T20:06:14.942Z,22.13
2022-11-28T20:08:42.824Z,26.93
2022-11-28T20:11:21.914Z,22.93
2022-11-28T20:13:49.964Z,29.73
2022-11-28T20:16:18.278Z,30.00
2022-11-28T20:18:46.050Z,29.27
2022-11-28T20:21:18.281Z,29.47
2022-11-28T20:23:50.371Z,28.43
2022-11-28T20:26:18.535Z,28.80
2022-11-28T20:28:48.186Z,33.77
2022-11-28T20:31:19.697Z,30.03
2022-11-28T20:33:47.961Z,28.53
2022-11-28T20:36:16.697Z,25.93
2022-11-28T20:38:44.424Z,31.63
2022-11-28T20:41:12.792Z,31.20
2022-11-28T20:43:40.778Z,28.67
2022-11-28T20:46:15.314Z,27.57
2022-11-28T20:48:43.343Z,35.33
2022-11-28T20:51:22.155Z,36.60
2022-11-28T20:53:49.701Z,28.77
2022-11-28T20:56:18.998Z,33.93
2022-11-28T20:58:46.871Z,33.27
2022-11-28T21:01:18.648Z,25.63
2022-11-28T21:03:46.213Z,25.83
2022-11-28T21:06:13.852Z,28.03
2022-11-28T21:08:41.659Z,27.17
2022-11-28T21:11:10.375Z,30.77
2022-11-28T21:13:37.995Z,27.30
2022-11-28T21:16:09.689Z,31.33
2022-11-28T21:18:38.057Z,30.00
2022-11-28T21:21:13.377Z,30.07
2022-11-28T21:23:41.067Z,31.37
2022-11-28T21:26:09.934Z,27.10
2022-11-28T21:28:38.095Z,29.00
2022-11-28T21:31:07.056Z,27.23
2022-11-28T21:33:34.523Z,32.43
2022-11-28T21:36:02.702Z,31.97
2022-11-28T21:38:30.845Z,32.60
2022-11-28T21:40:58.334Z,29.83
2022-11-28T21:43:26.192Z,30.70
2022-11-28T21:45:53.664Z,31.83
2022-11-28T21:48:21.304Z,28.40
2022-11-28T21:50:51.520Z,26.10
2022-11-28T21:53:19.040Z,31.83
2022-11-28T21:55:46.511Z,26.97
2022-11-28T21:58:14.166Z,32.70
2022-11-28T22:00:54.188Z,25.23
2022-11-28T22:03:21.669Z,38.30
2022-11-28T22:05:49.177Z,31.67
2022-11-28T22:08:16.664Z,31.17
2022-11-28T22:10:44.098Z,32.50
2022-11-28T22:13:11.565Z,28.80
2022-11-28T22:15:42.873Z,29.80
2022-11-28T22:18:11.434Z,32.67
2022-11-28T22:20:43.714Z,34.67
2022-11-28T22:23:11.846Z,28.63
2022-11-28T22:25:39.326Z,29.43
2022-11-28T22:28:06.823Z,24.23
2022-11-28T22:30:34.312Z,27.80
2022-11-28T22:33:01.894Z,26.70
2022-11-28T22:35:29.341Z,32.00
2022-11-28T22:37:56.837Z,28.27
2022-11-28T22:40:24.334Z,27.70
2022-11-28T22:42:54.752Z,31.30
2022-11-28T22:45:22.401Z,27.47
2022-11-28T22:47:49.837Z,37.80
2022-11-28T22:50:17.328Z,32.40
2022-11-28T22:52:44.806Z,29.17
2022-11-28T22:55:12.324Z,27.57
2022-11-28T22:57:39.776Z,32.87
2022-11-28T23:00:08.303Z,27.60
2022-11-28T23:02:36.213Z,35.80
2022-11-28T23:05:04.377Z,31.37
2022-11-28T23:07:31.843Z,34.63
2022-11-28T23:09:59.280Z,31.30
2022-11-28T23:12:26.694Z,31.10
2022-11-28T23:14:54.156Z,36.40
2022-11-28T23:17:21.599Z,28.20
2022-11-28T23:19:49.019Z,33.13
2022-11-28T23:22:16.478Z,35.37
2022-11-28T23:24:44.177Z,30.43
2022-11-28T23:27:11.755Z,35.03
2022-11-28T23:29:39.188Z,37.37
2022-11-28T23:32:06.758Z,33.87
2022-11-28T23:34:34.242Z,30.53
2022-11-28T23:37:01.672Z,34.90
2022-11-28T23:39:29.191Z,30.87
2022-11-28T23:41:56.616Z,35.63
2022-11-28T23:44:24.028Z,30.20
2022-11-28T23:46:51.485Z,28.17
2022-11-28T23:49:18.921Z,34.30
2022-11-28T23:51:46.532Z,29.37
2022-11-28T23:54:14.106Z,38.83
2022-11-28T23:56:42.154Z,43.97
2022-11-28T23:59:10.432Z,39.77
